sensor_id;sensor_type;location;lat;lon;timestamp;P1;durP1;ratioP1;P2;durP2;ratioP2
77740;SDS011;66919;51.006;4.630;2023-02-01T00:02:01;19.27;;;6.78;;
77740;SDS011;66919;51.006;4.630;2023-02-01T00:04:27;18.00;;;5.80;;
77740;SDS011;66919;51.006;4.630;2023-02-01T00:06:53;13.52;;;6.18;;
77740;SDS011;66919;51.006;4.630;2023-02-01T00:09:19;16.27;;;6.68;;
77740;SDS011;66919;51.006;4.630;2023-02-01T00:11:45;15.23;;;6.18;;
77740;SDS011;66919;51.006;4.630;2023-02-01T00:14:11;21.58;;;6.43;;
77740;SDS011;66919;51.006;4.630;2023-02-01T00:16:37;21.90;;;5.90;;
77740;SDS011;66919;51.006;4.630;2023-02-01T00:19:04;16.83;;;6.43;;
77740;SDS011;66919;51.006;4.630;2023-02-01T00:21:33;17.15;;;6.43;;
77740;SDS011;66919;51.006;4.630;2023-02-01T00:23:58;21.63;;;5.55;;
77740;SDS011;66919;51.006;4.630;2023-02-01T00:26:32;18.50;;;5.93;;
77740;SDS011;66919;51.006;4.630;2023-02-01T00:29:00;22.35;;;6.05;;
77740;SDS011;66919;51.006;4.630;2023-02-01T00:31:27;16.13;;;5.18;;
77740;SDS011;66919;51.006;4.630;2023-02-01T00:33:53;17.65;;;6.30;;
77740;SDS011;66919;51.006;4.630;2023-02-01T00:36:19;19.27;;;5.57;;
77740;SDS011;66919;51.006;4.630;2023-02-01T00:38:45;20.15;;;5.13;;
77740;SDS011;66919;51.006;4.630;2023-02-01T00:41:15;26.80;;;5.82;;
77740;SDS011;66919;51.006;4.630;2023-02-01T00:43:42;19.55;;;5.70;;
77740;SDS011;66919;51.006;4.630;2023-02-01T00:46:08;14.77;;;4.90;;
77740;SDS011;66919;51.006;4.630;2023-02-01T00:48:35;19.55;;;4.85;;
77740;SDS011;66919;51.006;4.630;2023-02-01T00:51:01;19.98;;;4.85;;
77740;SDS011;66919;51.006;4.630;2023-02-01T00:53:29;14.95;;;5.13;;
77740;SDS011;66919;51.006;4.630;2023-02-01T00:55:55;15.07;;;4.22;;
77740;SDS011;66919;51.006;4.630;2023-02-01T00:58:21;21.42;;;4.60;;
77740;SDS011;66919;51.006;4.630;2023-02-01T01:00:56;15.30;;;4.43;;
77740;SDS011;66919;51.006;4.630;2023-02-01T01:03:36;14.15;;;3.90;;
77740;SDS011;66919;51.006;4.630;2023-02-01T01:06:04;18.65;;;4.63;;
77740;SDS011;66919;51.006;4.630;2023-02-01T01:08:32;17.52;;;4.63;;
77740;SDS011;66919;51.006;4.630;2023-02-01T01:10:58;19.08;;;5.00;;
77740;SDS011;66919;51.006;4.630;2023-02-01T01:13:29;14.60;;;4.38;;
77740;SDS011;66919;51.006;4.630;2023-02-01T01:15:54;20.77;;;4.65;;
77740;SDS011;66919;51.006;4.630;2023-02-01T01:18:20;10.60;;;4.32;;
77740;SDS011;66919;51.006;4.630;2023-02-01T01:20:47;26.13;;;4.30;;
77740;SDS011;66919;51.006;4.630;2023-02-01T01:23:13;19.17;;;3.97;;
77740;SDS011;66919;51.006;4.630;2023-02-01T01:25:39;16.20;;;4.35;;
77740;SDS011;66919;51.006;4.630;2023-02-01T01:28:05;13.38;;;5.53;;
77740;SDS011;66919;51.006;4.630;2023-02-01T01:30:32;21.13;;;5.13;;
77740;SDS011;66919;51.006;4.630;2023-02-01T01:32:59;22.42;;;5.28;;
77740;SDS011;66919;51.006;4.630;2023-02-01T01:35:25;13.43;;;3.13;;
77740;SDS011;66919;51.006;4.630;2023-02-01T01:37:53;21.55;;;5.15;;
77740;SDS011;66919;51.006;4.630;2023-02-01T01:40:19;19.83;;;4.40;;
77740;SDS011;66919;51.006;4.630;2023-02-01T01:42:44;15.45;;;5.00;;
77740;SDS011;66919;51.006;4.630;2023-02-01T01:47:56;10.67;;;3.60;;
77740;SDS011;66919;51.006;4.630;2023-02-01T01:50:29;19.55;;;4.65;;
77740;SDS011;66919;51.006;4.630;2023-02-01T01:52:58;18.90;;;4.60;;
77740;SDS011;66919;51.006;4.630;2023-02-01T01:55:27;15.18;;;3.45;;
77740;SDS011;66919;51.006;4.630;2023-02-01T01:57:58;11.75;;;3.47;;
77740;SDS011;66919;51.006;4.630;2023-02-01T02:00:26;23.20;;;3.83;;
77740;SDS011;66919;51.006;4.630;2023-02-01T02:02:54;19.50;;;4.28;;
77740;SDS011;66919;51.006;4.630;2023-02-01T02:05:24;14.05;;;4.40;;
77740;SDS011;66919;51.006;4.630;2023-02-01T02:07:51;11.48;;;3.45;;
77740;SDS011;66919;51.006;4.630;2023-02-01T02:10:18;16.70;;;3.70;;
77740;SDS011;66919;51.006;4.630;2023-02-01T02:12:45;20.52;;;4.25;;
77740;SDS011;66919;51.006;4.630;2023-02-01T02:15:13;15.48;;;3.28;;
77740;SDS011;66919;51.006;4.630;2023-02-01T02:20:43;28.45;;;4.95;;
77740;SDS011;66919;51.006;4.630;2023-02-01T02:37:07;16.35;;;4.65;;
77740;SDS011;66919;51.006;4.630;2023-02-01T02:42:34;14.30;;;3.70;;
77740;SDS011;66919;51.006;4.630;2023-02-01T02:45:34;26.13;;;3.45;;
77740;SDS011;66919;51.006;4.630;2023-02-01T02:48:30;18.30;;;3.65;;
77740;SDS011;66919;51.006;4.630;2023-02-01T02:51:08;14.23;;;3.95;;
77740;SDS011;66919;51.006;4.630;2023-02-01T02:56:46;15.20;;;3.85;;
77740;SDS011;66919;51.006;4.630;2023-02-01T02:59:32;14.25;;;3.55;;
77740;SDS011;66919;51.006;4.630;2023-02-01T03:02:18;16.80;;;3.90;;
77740;SDS011;66919;51.006;4.630;2023-02-01T03:05:04;17.73;;;3.55;;
77740;SDS011;66919;51.006;4.630;2023-02-01T03:10:18;13.88;;;3.75;;
77740;SDS011;66919;51.006;4.630;2023-02-01T03:12:49;18.08;;;3.20;;
77740;SDS011;66919;51.006;4.630;2023-02-01T03:15:26;16.10;;;3.30;;
77740;SDS011;66919;51.006;4.630;2023-02-01T03:18:14;13.70;;;3.80;;
77740;SDS011;66919;51.006;4.630;2023-02-01T03:20:44;21.77;;;3.97;;
77740;SDS011;66919;51.006;4.630;2023-02-01T03:23:13;16.17;;;3.33;;
77740;SDS011;66919;51.006;4.630;2023-02-01T03:25:44;16.75;;;3.90;;
77740;SDS011;66919;51.006;4.630;2023-02-01T03:28:13;20.40;;;3.50;;
77740;SDS011;66919;51.006;4.630;2023-02-01T03:30:44;13.70;;;2.95;;
77740;SDS011;66919;51.006;4.630;2023-02-01T03:33:13;17.45;;;4.05;;
77740;SDS011;66919;51.006;4.630;2023-02-01T03:38:52;9.40;;;2.88;;
77740;SDS011;66919;51.006;4.630;2023-02-01T03:41:26;16.15;;;4.22;;
77740;SDS011;66919;51.006;4.630;2023-02-01T03:47:00;20.27;;;4.53;;
77740;SDS011;66919;51.006;4.630;2023-02-01T03:49:43;15.27;;;3.65;;
77740;SDS011;66919;51.006;4.630;2023-02-01T03:52:14;17.13;;;3.97;;
77740;SDS011;66919;51.006;4.630;2023-02-01T03:54:45;20.27;;;3.88;;
77740;SDS011;66919;51.006;4.630;2023-02-01T03:57:13;19.98;;;3.83;;
77740;SDS011;66919;51.006;4.630;2023-02-01T03:59:41;13.70;;;4.22;;
77740;SDS011;66919;51.006;4.630;2023-02-01T04:02:09;16.80;;;4.22;;
77740;SDS011;66919;51.006;4.630;2023-02-01T04:04:35;17.67;;;4.13;;
77740;SDS011;66919;51.006;4.630;2023-02-01T04:07:01;17.55;;;4.03;;
77740;SDS011;66919;51.006;4.630;2023-02-01T04:09:27;15.50;;;4.18;;
77740;SDS011;66919;51.006;4.630;2023-02-01T04:11:53;16.98;;;3.50;;
77740;SDS011;66919;51.006;4.630;2023-02-01T04:14:18;14.80;;;3.22;;
77740;SDS011;66919;51.006;4.630;2023-02-01T04:16:44;11.13;;;2.75;;
77740;SDS011;66919;51.006;4.630;2023-02-01T04:19:10;23.17;;;4.28;;
77740;SDS011;66919;51.006;4.630;2023-02-01T04:21:35;17.48;;;3.83;;
77740;SDS011;66919;51.006;4.630;2023-02-01T04:24:01;18.90;;;3.70;;
77740;SDS011;66919;51.006;4.630;2023-02-01T04:26:27;16.83;;;4.18;;
77740;SDS011;66919;51.006;4.630;2023-02-01T04:28:53;15.25;;;3.38;;
77740;SDS011;66919;51.006;4.630;2023-02-01T04:31:19;15.50;;;4.43;;
77740;SDS011;66919;51.006;4.630;2023-02-01T04:33:50;14.52;;;4.10;;
77740;SDS011;66919;51.006;4.630;2023-02-01T04:36:17;14.93;;;3.40;;
77740;SDS011;66919;51.006;4.630;2023-02-01T04:38:44;14.02;;;3.58;;
77740;SDS011;66919;51.006;4.630;2023-02-01T04:41:10;16.52;;;3.88;;
77740;SDS011;66919;51.006;4.630;2023-02-01T04:43:35;17.55;;;4.40;;
77740;SDS011;66919;51.006;4.630;2023-02-01T04:46:01;11.82;;;3.05;;
77740;SDS011;66919;51.006;4.630;2023-02-01T04:48:27;19.05;;;4.13;;
77740;SDS011;66919;51.006;4.630;2023-02-01T04:50:52;11.98;;;3.25;;
77740;SDS011;66919;51.006;4.630;2023-02-01T04:53:18;11.27;;;3.00;;
77740;SDS011;66919;51.006;4.630;2023-02-01T04:55:44;20.05;;;4.07;;
77740;SDS011;66919;51.006;4.630;2023-02-01T04:58:10;15.75;;;4.10;;
77740;SDS011;66919;51.006;4.630;2023-02-01T05:00:36;17.90;;;2.90;;
77740;SDS011;66919;51.006;4.630;2023-02-01T05:03:02;16.45;;;3.97;;
77740;SDS011;66919;51.006;4.630;2023-02-01T05:05:28;23.33;;;3.28;;
77740;SDS011;66919;51.006;4.630;2023-02-01T05:07:54;13.70;;;2.70;;
77740;SDS011;66919;51.006;4.630;2023-02-01T05:10:20;14.80;;;3.03;;
77740;SDS011;66919;51.006;4.630;2023-02-01T05:12:46;15.48;;;3.72;;
77740;SDS011;66919;51.006;4.630;2023-02-01T05:15:50;21.27;;;4.05;;
77740;SDS011;66919;51.006;4.630;2023-02-01T05:18:16;18.88;;;3.38;;
77740;SDS011;66919;51.006;4.630;2023-02-01T05:20:42;21.98;;;3.78;;
77740;SDS011;66919;51.006;4.630;2023-02-01T05:23:07;24.85;;;4.13;;
77740;SDS011;66919;51.006;4.630;2023-02-01T05:25:33;24.63;;;5.55;;
77740;SDS011;66919;51.006;4.630;2023-02-01T05:27:58;17.10;;;3.72;;
77740;SDS011;66919;51.006;4.630;2023-02-01T05:30:24;19.23;;;3.03;;
77740;SDS011;66919;51.006;4.630;2023-02-01T05:32:50;16.42;;;4.43;;
77740;SDS011;66919;51.006;4.630;2023-02-01T05:35:17;18.25;;;3.67;;
77740;SDS011;66919;51.006;4.630;2023-02-01T05:37:43;12.73;;;3.42;;
77740;SDS011;66919;51.006;4.630;2023-02-01T05:40:09;22.98;;;4.50;;
77740;SDS011;66919;51.006;4.630;2023-02-01T05:42:35;17.00;;;4.50;;
77740;SDS011;66919;51.006;4.630;2023-02-01T05:45:01;16.88;;;4.00;;
77740;SDS011;66919;51.006;4.630;2023-02-01T05:47:27;19.00;;;4.43;;
77740;SDS011;66919;51.006;4.630;2023-02-01T05:49:52;14.75;;;3.53;;
77740;SDS011;66919;51.006;4.630;2023-02-01T05:52:18;15.93;;;3.42;;
77740;SDS011;66919;51.006;4.630;2023-02-01T05:54:45;17.30;;;3.50;;
77740;SDS011;66919;51.006;4.630;2023-02-01T05:57:11;18.90;;;3.90;;
77740;SDS011;66919;51.006;4.630;2023-02-01T05:59:38;17.38;;;3.85;;
77740;SDS011;66919;51.006;4.630;2023-02-01T06:02:06;24.58;;;4.45;;
77740;SDS011;66919;51.006;4.630;2023-02-01T06:04:33;18.80;;;3.30;;
77740;SDS011;66919;51.006;4.630;2023-02-01T06:06:59;27.35;;;4.63;;
77740;SDS011;66919;51.006;4.630;2023-02-01T06:09:24;18.70;;;4.85;;
77740;SDS011;66919;51.006;4.630;2023-02-01T06:11:50;23.35;;;4.35;;
77740;SDS011;66919;51.006;4.630;2023-02-01T06:14:16;22.05;;;4.40;;
77740;SDS011;66919;51.006;4.630;2023-02-01T06:16:41;8.88;;;2.80;;
77740;SDS011;66919;51.006;4.630;2023-02-01T06:19:07;19.88;;;5.50;;
77740;SDS011;66919;51.006;4.630;2023-02-01T06:21:34;21.17;;;4.28;;
77740;SDS011;66919;51.006;4.630;2023-02-01T06:24:01;14.23;;;3.53;;
77740;SDS011;66919;51.006;4.630;2023-02-01T06:26:26;18.90;;;3.10;;
77740;SDS011;66919;51.006;4.630;2023-02-01T06:28:53;15.10;;;3.20;;
77740;SDS011;66919;51.006;4.630;2023-02-01T06:31:20;16.83;;;3.72;;
77740;SDS011;66919;51.006;4.630;2023-02-01T06:33:46;13.70;;;3.67;;
77740;SDS011;66919;51.006;4.630;2023-02-01T06:36:12;22.17;;;4.70;;
77740;SDS011;66919;51.006;4.630;2023-02-01T06:38:38;14.63;;;3.53;;
77740;SDS011;66919;51.006;4.630;2023-02-01T06:41:04;19.85;;;3.42;;
77740;SDS011;66919;51.006;4.630;2023-02-01T06:43:30;19.40;;;3.75;;
77740;SDS011;66919;51.006;4.630;2023-02-01T06:46:01;19.30;;;4.80;;
77740;SDS011;66919;51.006;4.630;2023-02-01T06:48:28;13.48;;;3.45;;
77740;SDS011;66919;51.006;4.630;2023-02-01T06:50:53;14.00;;;3.10;;
77740;SDS011;66919;51.006;4.630;2023-02-01T06:53:19;22.85;;;3.88;;
77740;SDS011;66919;51.006;4.630;2023-02-01T06:55:55;19.55;;;4.30;;
77740;SDS011;66919;51.006;4.630;2023-02-01T06:58:29;16.60;;;4.38;;
77740;SDS011;66919;51.006;4.630;2023-02-01T07:00:56;16.60;;;4.35;;
77740;SDS011;66919;51.006;4.630;2023-02-01T07:03:22;14.68;;;2.95;;
77740;SDS011;66919;51.006;4.630;2023-02-01T07:05:48;29.25;;;4.75;;
77740;SDS011;66919;51.006;4.630;2023-02-01T07:08:13;19.25;;;3.92;;
77740;SDS011;66919;51.006;4.630;2023-02-01T07:10:39;11.77;;;3.60;;
77740;SDS011;66919;51.006;4.630;2023-02-01T07:13:05;44.78;;;17.40;;
77740;SDS011;66919;51.006;4.630;2023-02-01T07:15:31;41.15;;;18.67;;
77740;SDS011;66919;51.006;4.630;2023-02-01T07:17:56;13.32;;;7.60;;
77740;SDS011;66919;51.006;4.630;2023-02-01T07:20:22;21.33;;;8.02;;
77740;SDS011;66919;51.006;4.630;2023-02-01T07:22:48;20.92;;;5.30;;
77740;SDS011;66919;51.006;4.630;2023-02-01T07:25:22;18.55;;;5.00;;
77740;SDS011;66919;51.006;4.630;2023-02-01T07:27:48;20.08;;;6.32;;
77740;SDS011;66919;51.006;4.630;2023-02-01T07:30:14;17.20;;;3.90;;
77740;SDS011;66919;51.006;4.630;2023-02-01T07:32:39;12.65;;;3.53;;
77740;SDS011;66919;51.006;4.630;2023-02-01T07:35:05;16.92;;;3.30;;
77740;SDS011;66919;51.006;4.630;2023-02-01T07:37:31;17.10;;;3.83;;
77740;SDS011;66919;51.006;4.630;2023-02-01T07:39:59;22.27;;;5.53;;
77740;SDS011;66919;51.006;4.630;2023-02-01T07:42:25;18.13;;;5.50;;
77740;SDS011;66919;51.006;4.630;2023-02-01T07:44:50;20.55;;;7.43;;
77740;SDS011;66919;51.006;4.630;2023-02-01T07:47:16;19.85;;;4.40;;
77740;SDS011;66919;51.006;4.630;2023-02-01T07:49:42;20.17;;;7.38;;
77740;SDS011;66919;51.006;4.630;2023-02-01T07:52:07;23.33;;;9.40;;
77740;SDS011;66919;51.006;4.630;2023-02-01T07:54:33;30.85;;;14.05;;
77740;SDS011;66919;51.006;4.630;2023-02-01T07:56:58;25.88;;;10.70;;
77740;SDS011;66919;51.006;4.630;2023-02-01T07:59:24;33.78;;;18.00;;
77740;SDS011;66919;51.006;4.630;2023-02-01T08:01:50;28.50;;;13.85;;
77740;SDS011;66919;51.006;4.630;2023-02-01T08:04:15;27.83;;;9.98;;
77740;SDS011;66919;51.006;4.630;2023-02-01T08:06:41;15.95;;;5.78;;
77740;SDS011;66919;51.006;4.630;2023-02-01T08:09:07;19.58;;;5.65;;
77740;SDS011;66919;51.006;4.630;2023-02-01T08:11:33;19.27;;;5.53;;
77740;SDS011;66919;51.006;4.630;2023-02-01T08:13:59;23.95;;;6.10;;
77740;SDS011;66919;51.006;4.630;2023-02-01T08:16:24;18.30;;;5.40;;
77740;SDS011;66919;51.006;4.630;2023-02-01T08:18:51;16.08;;;5.18;;
77740;SDS011;66919;51.006;4.630;2023-02-01T08:21:21;24.55;;;4.63;;
77740;SDS011;66919;51.006;4.630;2023-02-01T08:23:49;17.63;;;4.07;;
77740;SDS011;66919;51.006;4.630;2023-02-01T08:26:17;14.98;;;4.15;;
77740;SDS011;66919;51.006;4.630;2023-02-01T08:28:49;10.35;;;2.38;;
77740;SDS011;66919;51.006;4.630;2023-02-01T08:31:18;13.40;;;2.90;;
77740;SDS011;66919;51.006;4.630;2023-02-01T08:34:07;21.50;;;3.90;;
77740;SDS011;66919;51.006;4.630;2023-02-01T08:36:33;15.48;;;3.53;;
77740;SDS011;66919;51.006;4.630;2023-02-01T08:39:00;20.40;;;4.18;;
77740;SDS011;66919;51.006;4.630;2023-02-01T08:41:28;20.88;;;4.85;;
77740;SDS011;66919;51.006;4.630;2023-02-01T08:43:55;19.50;;;4.35;;
77740;SDS011;66919;51.006;4.630;2023-02-01T08:46:22;18.60;;;4.45;;
77740;SDS011;66919;51.006;4.630;2023-02-01T08:48:48;20.30;;;4.07;;
77740;SDS011;66919;51.006;4.630;2023-02-01T08:51:15;10.52;;;4.00;;
77740;SDS011;66919;51.006;4.630;2023-02-01T08:53:43;14.55;;;3.58;;
77740;SDS011;66919;51.006;4.630;2023-02-01T08:56:09;24.30;;;9.50;;
77740;SDS011;66919;51.006;4.630;2023-02-01T08:58:36;29.60;;;12.30;;
77740;SDS011;66919;51.006;4.630;2023-02-01T09:01:03;88.32;;;49.50;;
77740;SDS011;66919;51.006;4.630;2023-02-01T09:03:30;53.35;;;34.05;;
77740;SDS011;66919;51.006;4.630;2023-02-01T09:06:00;25.38;;;11.57;;
77740;SDS011;66919;51.006;4.630;2023-02-01T09:08:30;22.48;;;5.57;;
77740;SDS011;66919;51.006;4.630;2023-02-01T09:11:03;29.20;;;5.18;;
77740;SDS011;66919;51.006;4.630;2023-02-01T09:15:57;26.83;;;6.63;;
77740;SDS011;66919;51.006;4.630;2023-02-01T09:18:24;9.38;;;2.88;;
77740;SDS011;66919;51.006;4.630;2023-02-01T09:20:50;10.20;;;2.78;;
77740;SDS011;66919;51.006;4.630;2023-02-01T09:23:16;15.40;;;3.42;;
77740;SDS011;66919;51.006;4.630;2023-02-01T09:25:41;17.52;;;3.55;;
77740;SDS011;66919;51.006;4.630;2023-02-01T09:28:07;17.15;;;3.63;;
77740;SDS011;66919;51.006;4.630;2023-02-01T09:30:34;15.82;;;3.33;;
77740;SDS011;66919;51.006;4.630;2023-02-01T09:33:01;18.65;;;4.63;;
77740;SDS011;66919;51.006;4.630;2023-02-01T09:35:27;22.30;;;9.05;;
77740;SDS011;66919;51.006;4.630;2023-02-01T09:37:53;17.45;;;5.45;;
77740;SDS011;66919;51.006;4.630;2023-02-01T09:40:19;16.38;;;5.03;;
77740;SDS011;66919;51.006;4.630;2023-02-01T09:42:48;16.02;;;4.47;;
77740;SDS011;66919;51.006;4.630;2023-02-01T09:48:11;21.65;;;4.20;;
77740;SDS011;66919;51.006;4.630;2023-02-01T09:50:42;9.45;;;2.58;;
77740;SDS011;66919;51.006;4.630;2023-02-01T09:53:20;16.05;;;4.78;;
77740;SDS011;66919;51.006;4.630;2023-02-01T09:55:59;9.07;;;3.47;;
77740;SDS011;66919;51.006;4.630;2023-02-01T10:01:34;14.27;;;3.05;;
77740;SDS011;66919;51.006;4.630;2023-02-01T10:04:06;12.25;;;3.35;;
77740;SDS011;66919;51.006;4.630;2023-02-01T10:15:34;15.55;;;2.72;;
77740;SDS011;66919;51.006;4.630;2023-02-01T10:23:58;9.32;;;3.83;;
77740;SDS011;66919;51.006;4.630;2023-02-01T10:26:34;18.88;;;3.72;;
77740;SDS011;66919;51.006;4.630;2023-02-01T10:29:04;18.67;;;3.70;;
77740;SDS011;66919;51.006;4.630;2023-02-01T10:31:42;13.70;;;2.58;;
77740;SDS011;66919;51.006;4.630;2023-02-01T10:34:15;11.23;;;3.15;;
77740;SDS011;66919;51.006;4.630;2023-02-01T10:39:34;30.60;;;4.82;;
77740;SDS011;66919;51.006;4.630;2023-02-01T10:42:00;14.18;;;3.92;;
77740;SDS011;66919;51.006;4.630;2023-02-01T10:44:28;16.65;;;4.07;;
77740;SDS011;66919;51.006;4.630;2023-02-01T10:46:56;10.18;;;3.30;;
77740;SDS011;66919;51.006;4.630;2023-02-01T10:49:37;13.60;;;3.80;;
77740;SDS011;66919;51.006;4.630;2023-02-01T10:54:39;11.00;;;2.65;;
77740;SDS011;66919;51.006;4.630;2023-02-01T10:59:51;14.52;;;3.33;;
77740;SDS011;66919;51.006;4.630;2023-02-01T11:05:03;13.07;;;3.10;;
77740;SDS011;66919;51.006;4.630;2023-02-01T11:07:35;10.52;;;2.72;;
77740;SDS011;66919;51.006;4.630;2023-02-01T11:10:02;13.10;;;3.08;;
77740;SDS011;66919;51.006;4.630;2023-02-01T11:12:35;10.38;;;2.58;;
77740;SDS011;66919;51.006;4.630;2023-02-01T11:17:46;8.68;;;3.10;;
77740;SDS011;66919;51.006;4.630;2023-02-01T11:20:55;15.73;;;4.32;;
77740;SDS011;66919;51.006;4.630;2023-02-01T11:23:11;8.38;;;1.92;;
77740;SDS011;66919;51.006;4.630;2023-02-01T11:25:58;3.85;;;2.28;;
77740;SDS011;66919;51.006;4.630;2023-02-01T11:28:29;9.95;;;2.85;;
77740;SDS011;66919;51.006;4.630;2023-02-01T11:30:58;10.90;;;2.08;;
77740;SDS011;66919;51.006;4.630;2023-02-01T11:33:28;11.80;;;3.00;;
77740;SDS011;66919;51.006;4.630;2023-02-01T11:35:58;12.13;;;2.53;;
77740;SDS011;66919;51.006;4.630;2023-02-01T11:38:27;11.23;;;2.22;;
77740;SDS011;66919;51.006;4.630;2023-02-01T11:41:13;6.22;;;2.15;;
77740;SDS011;66919;51.006;4.630;2023-02-01T11:43:55;7.97;;;2.95;;
77740;SDS011;66919;51.006;4.630;2023-02-01T11:46:30;14.48;;;2.70;;
77740;SDS011;66919;51.006;4.630;2023-02-01T11:49:13;9.20;;;1.85;;
77740;SDS011;66919;51.006;4.630;2023-02-01T12:00:04;9.30;;;2.83;;
77740;SDS011;66919;51.006;4.630;2023-02-01T12:10:58;10.93;;;2.70;;
77740;SDS011;66919;51.006;4.630;2023-02-01T12:37:48;7.32;;;2.17;;
77740;SDS011;66919;51.006;4.630;2023-02-01T12:43:12;7.60;;;2.00;;
77740;SDS011;66919;51.006;4.630;2023-02-01T12:46:01;6.55;;;2.63;;
77740;SDS011;66919;51.006;4.630;2023-02-01T12:48:38;14.85;;;2.17;;
77740;SDS011;66919;51.006;4.630;2023-02-01T12:51:15;13.05;;;2.13;;
77740;SDS011;66919;51.006;4.630;2023-02-01T12:53:56;10.25;;;1.83;;
77740;SDS011;66919;51.006;4.630;2023-02-01T12:56:26;16.75;;;2.63;;
77740;SDS011;66919;51.006;4.630;2023-02-01T12:58:58;11.95;;;2.30;;
77740;SDS011;66919;51.006;4.630;2023-02-01T13:01:39;8.52;;;2.13;;
77740;SDS011;66919;51.006;4.630;2023-02-01T13:04:12;10.70;;;2.65;;
77740;SDS011;66919;51.006;4.630;2023-02-01T13:09:23;9.73;;;2.47;;
77740;SDS011;66919;51.006;4.630;2023-02-01T13:12:19;17.13;;;2.90;;
77740;SDS011;66919;51.006;4.630;2023-02-01T13:14:53;10.85;;;2.90;;
77740;SDS011;66919;51.006;4.630;2023-02-01T13:17:27;7.93;;;1.80;;
77740;SDS011;66919;51.006;4.630;2023-02-01T13:22:40;12.38;;;2.38;;
77740;SDS011;66919;51.006;4.630;2023-02-01T13:25:23;14.48;;;2.50;;
77740;SDS011;66919;51.006;4.630;2023-02-01T13:28:02;13.90;;;2.40;;
77740;SDS011;66919;51.006;4.630;2023-02-01T13:30:47;10.30;;;1.90;;
77740;SDS011;66919;51.006;4.630;2023-02-01T13:41:42;14.80;;;3.55;;
77740;SDS011;66919;51.006;4.630;2023-02-01T13:44:23;11.65;;;2.53;;
77740;SDS011;66919;51.006;4.630;2023-02-01T13:46:51;16.75;;;2.15;;
77740;SDS011;66919;51.006;4.630;2023-02-01T13:49:23;9.50;;;1.73;;
77740;SDS011;66919;51.006;4.630;2023-02-01T13:51:52;13.38;;;2.03;;
77740;SDS011;66919;51.006;4.630;2023-02-01T13:57:34;7.95;;;2.70;;
77740;SDS011;66919;51.006;4.630;2023-02-01T14:00:07;10.27;;;2.85;;
77740;SDS011;66919;51.006;4.630;2023-02-01T14:23:40;4.80;;;1.67;;
77740;SDS011;66919;51.006;4.630;2023-02-01T14:26:08;11.88;;;2.60;;
77740;SDS011;66919;51.006;4.630;2023-02-01T14:28:59;13.93;;;2.67;;
77740;SDS011;66919;51.006;4.630;2023-02-01T14:31:31;4.15;;;1.73;;
77740;SDS011;66919;51.006;4.630;2023-02-01T14:34:02;12.15;;;2.53;;
77740;SDS011;66919;51.006;4.630;2023-02-01T14:36:48;11.40;;;2.03;;
77740;SDS011;66919;51.006;4.630;2023-02-01T14:39:21;9.43;;;2.28;;
77740;SDS011;66919;51.006;4.630;2023-02-01T14:41:58;10.35;;;2.17;;
77740;SDS011;66919;51.006;4.630;2023-02-01T14:44:32;16.25;;;2.35;;
77740;SDS011;66919;51.006;4.630;2023-02-01T14:47:04;9.73;;;2.22;;
77740;SDS011;66919;51.006;4.630;2023-02-01T14:49:37;8.30;;;2.33;;
77740;SDS011;66919;51.006;4.630;2023-02-01T14:52:11;12.93;;;2.97;;
77740;SDS011;66919;51.006;4.630;2023-02-01T14:54:41;8.15;;;2.35;;
77740;SDS011;66919;51.006;4.630;2023-02-01T14:57:19;10.00;;;3.20;;
77740;SDS011;66919;51.006;4.630;2023-02-01T14:59:48;9.98;;;2.42;;
77740;SDS011;66919;51.006;4.630;2023-02-01T15:02:25;9.38;;;2.40;;
77740;SDS011;66919;51.006;4.630;2023-02-01T15:04:55;14.60;;;2.17;;
77740;SDS011;66919;51.006;4.630;2023-02-01T15:07:22;6.95;;;2.70;;
77740;SDS011;66919;51.006;4.630;2023-02-01T15:09:51;11.20;;;2.42;;
77740;SDS011;66919;51.006;4.630;2023-02-01T15:17:36;19.40;;;3.92;;
77740;SDS011;66919;51.006;4.630;2023-02-01T15:22:38;14.43;;;2.70;;
77740;SDS011;66919;51.006;4.630;2023-02-01T15:25:04;9.80;;;2.15;;
77740;SDS011;66919;51.006;4.630;2023-02-01T15:27:31;6.65;;;1.60;;
77740;SDS011;66919;51.006;4.630;2023-02-01T15:30:07;9.82;;;2.22;;
77740;SDS011;66919;51.006;4.630;2023-02-01T15:32:40;12.65;;;3.40;;
77740;SDS011;66919;51.006;4.630;2023-02-01T15:35:31;17.50;;;3.00;;
77740;SDS011;66919;51.006;4.630;2023-02-01T15:43:24;14.18;;;2.65;;
77740;SDS011;66919;51.006;4.630;2023-02-01T15:45:50;11.70;;;2.63;;
77740;SDS011;66919;51.006;4.630;2023-02-01T15:48:20;9.82;;;2.30;;
77740;SDS011;66919;51.006;4.630;2023-02-01T15:50:49;16.15;;;3.38;;
77740;SDS011;66919;51.006;4.630;2023-02-01T15:53:17;18.35;;;2.70;;
77740;SDS011;66919;51.006;4.630;2023-02-01T15:55:45;12.60;;;2.58;;
77740;SDS011;66919;51.006;4.630;2023-02-01T15:58:20;22.35;;;3.67;;
77740;SDS011;66919;51.006;4.630;2023-02-01T16:00:52;12.13;;;3.17;;
77740;SDS011;66919;51.006;4.630;2023-02-01T16:03:40;10.48;;;2.95;;
77740;SDS011;66919;51.006;4.630;2023-02-01T16:06:12;10.32;;;2.33;;
77740;SDS011;66919;51.006;4.630;2023-02-01T16:11:28;14.05;;;2.97;;
77740;SDS011;66919;51.006;4.630;2023-02-01T16:14:04;11.77;;;2.70;;
77740;SDS011;66919;51.006;4.630;2023-02-01T16:16:30;12.80;;;2.60;;
77740;SDS011;66919;51.006;4.630;2023-02-01T16:18:56;16.27;;;3.17;;
77740;SDS011;66919;51.006;4.630;2023-02-01T16:21:22;14.32;;;2.72;;
77740;SDS011;66919;51.006;4.630;2023-02-01T16:23:48;13.70;;;3.10;;
77740;SDS011;66919;51.006;4.630;2023-02-01T16:26:15;5.88;;;2.08;;
77740;SDS011;66919;51.006;4.630;2023-02-01T16:28:41;7.75;;;2.20;;
77740;SDS011;66919;51.006;4.630;2023-02-01T16:31:14;22.17;;;3.58;;
77740;SDS011;66919;51.006;4.630;2023-02-01T16:33:46;13.10;;;3.42;;
77740;SDS011;66919;51.006;4.630;2023-02-01T16:36:13;13.55;;;3.20;;
77740;SDS011;66919;51.006;4.630;2023-02-01T16:38:39;17.45;;;3.40;;
77740;SDS011;66919;51.006;4.630;2023-02-01T16:41:05;8.80;;;2.35;;
77740;SDS011;66919;51.006;4.630;2023-02-01T16:43:31;13.63;;;3.78;;
77740;SDS011;66919;51.006;4.630;2023-02-01T16:45:58;13.32;;;3.05;;
77740;SDS011;66919;51.006;4.630;2023-02-01T16:48:28;14.68;;;2.88;;
77740;SDS011;66919;51.006;4.630;2023-02-01T16:51:12;18.52;;;3.15;;
77740;SDS011;66919;51.006;4.630;2023-02-01T16:53:40;14.45;;;3.05;;
77740;SDS011;66919;51.006;4.630;2023-02-01T16:58:44;13.70;;;3.72;;
77740;SDS011;66919;51.006;4.630;2023-02-01T17:01:11;15.38;;;4.15;;
77740;SDS011;66919;51.006;4.630;2023-02-01T17:03:38;8.60;;;2.50;;
77740;SDS011;66919;51.006;4.630;2023-02-01T17:06:05;15.13;;;3.22;;
77740;SDS011;66919;51.006;4.630;2023-02-01T17:08:34;19.00;;;3.92;;
77740;SDS011;66919;51.006;4.630;2023-02-01T17:11:03;10.15;;;3.33;;
77740;SDS011;66919;51.006;4.630;2023-02-01T17:13:30;16.73;;;4.55;;
77740;SDS011;66919;51.006;4.630;2023-02-01T17:15:58;18.92;;;3.30;;
77740;SDS011;66919;51.006;4.630;2023-02-01T17:18:29;11.65;;;3.15;;
77740;SDS011;66919;51.006;4.630;2023-02-01T17:20:59;17.00;;;3.15;;
77740;SDS011;66919;51.006;4.630;2023-02-01T17:23:26;16.10;;;3.70;;
77740;SDS011;66919;51.006;4.630;2023-02-01T17:25:53;18.95;;;3.17;;
77740;SDS011;66919;51.006;4.630;2023-02-01T17:28:19;11.57;;;3.00;;
77740;SDS011;66919;51.006;4.630;2023-02-01T17:30:45;19.38;;;3.83;;
77740;SDS011;66919;51.006;4.630;2023-02-01T17:33:15;14.70;;;4.00;;
77740;SDS011;66919;51.006;4.630;2023-02-01T17:35:52;6.07;;;2.75;;
77740;SDS011;66919;51.006;4.630;2023-02-01T17:38:19;12.70;;;3.50;;
77740;SDS011;66919;51.006;4.630;2023-02-01T17:40:45;11.00;;;3.13;;
77740;SDS011;66919;51.006;4.630;2023-02-01T17:43:20;18.92;;;4.40;;